createdAt,value
2018-02-27T08:21:38.255Z,76.80
2018-02-27T08:24:26.274Z,74.40
2018-02-27T08:26:58.722Z,72.30
2018-02-27T08:29:34.253Z,71.00
2018-02-27T08:32:13.246Z,66.10
2018-02-27T08:34:48.103Z,66.60
2018-02-27T08:37:29.930Z,64.50
2018-02-27T08:39:59.834Z,58.60
2018-02-27T08:42:33.090Z,58.60
2018-02-27T08:45:01.141Z,55.40
2018-02-27T08:47:34.885Z,53.10
2018-02-27T08:50:07.690Z,50.70
2018-02-27T08:52:37.378Z,44.70
2018-02-27T08:55:08.410Z,44.70
2018-02-27T08:57:42.770Z,45.30
2018-02-27T09:00:10.806Z,47.20
2018-02-27T09:02:38.894Z,49.30
2018-02-27T09:05:11.433Z,49.90
2018-02-27T09:07:42.466Z,50.10
2018-02-27T09:10:11.333Z,54.50
2018-02-27T09:12:43.714Z,49.90
2018-02-27T09:15:16.690Z,48.60
2018-02-27T09:17:44.706Z,47.20
2018-02-27T09:20:12.742Z,44.10
2018-02-27T09:22:40.748Z,40.40
2018-02-27T09:25:08.762Z,39.40
2018-02-27T09:27:37.677Z,36.40
2018-02-27T09:30:10.510Z,36.10
2018-02-27T09:32:44.231Z,33.50
2018-02-27T09:35:18.698Z,33.40
2018-02-27T09:37:46.705Z,32.00
2018-02-27T09:40:16.382Z,31.20
2018-02-27T09:42:45.302Z,31.10
2018-02-27T09:45:14.074Z,32.20
2018-02-27T09:47:42.994Z,32.20
2018-02-27T09:50:10.998Z,32.30
2018-02-27T09:52:40.753Z,31.10
2018-02-27T09:55:13.070Z,30.50
2018-02-27T09:57:46.549Z,30.50
2018-02-27T10:00:15.477Z,30.50
2018-02-27T10:02:46.949Z,30.80
2018-02-27T10:05:14.961Z,28.90
2018-02-27T10:07:44.621Z,27.70
2018-02-27T10:10:12.641Z,27.60
2018-02-27T10:12:44.445Z,27.10
2018-02-27T10:15:12.457Z,27.50
2018-02-27T10:17:40.481Z,28.00
2018-02-27T10:20:08.490Z,27.70
2018-02-27T10:22:39.173Z,28.50
2018-02-27T10:25:11.285Z,28.60
2018-02-27T10:27:46.857Z,27.70
2018-02-27T10:30:20.870Z,27.70
2018-02-27T10:32:48.877Z,27.50
2018-02-27T10:35:16.877Z,26.70
2018-02-27T10:37:53.801Z,27.90
2018-02-27T10:40:34.445Z,27.90
2018-02-27T10:43:02.457Z,27.30
2018-02-27T10:45:30.461Z,26.50
2018-02-27T10:47:59.405Z,26.10
2018-02-27T10:50:29.313Z,26.20
2018-02-27T10:52:57.331Z,25.90
2018-02-27T10:55:26.097Z,25.90
2018-02-27T10:57:54.108Z,25.80
2018-02-27T11:00:33.762Z,26.50
2018-02-27T11:03:01.777Z,25.60
2018-02-27T11:05:29.765Z,25.20
2018-02-27T11:07:58.529Z,25.20
2018-02-27T11:10:29.781Z,25.20
2018-02-27T11:12:59.781Z,24.70
2018-02-27T11:15:28.681Z,24.80
2018-02-27T11:17:56.701Z,24.40
2018-02-27T11:20:25.552Z,25.40
2018-02-27T11:22:55.187Z,25.00
2018-02-27T11:25:26.333Z,26.10
2018-02-27T11:28:05.357Z,25.10
2018-02-27T11:30:37.981Z,24.40
2018-02-27T11:33:06.969Z,24.50
2018-02-27T11:35:47.413Z,26.40
2018-02-27T11:38:18.325Z,25.70
2018-02-27T11:40:47.068Z,25.30
2018-02-27T11:43:16.053Z,25.20
2018-02-27T11:45:46.061Z,25.80
2018-02-27T11:48:17.408Z,25.40
2018-02-27T11:50:46.311Z,23.00
2018-02-27T11:53:18.976Z,22.20
2018-02-27T11:55:46.997Z,23.10
2018-02-27T11:58:18.804Z,23.40
2018-02-27T12:00:46.817Z,23.40
2018-02-27T12:03:15.621Z,22.70
2018-02-27T12:05:43.633Z,22.60
2018-02-27T12:08:12.544Z,23.50
2018-02-27T12:10:40.561Z,24.60
2018-02-27T12:13:09.457Z,23.50
2018-02-27T12:15:39.436Z,24.00
2018-02-27T12:18:09.416Z,23.30
2018-02-27T12:20:42.928Z,21.50
2018-02-27T12:23:12.145Z,23.00
2018-02-27T12:25:44.088Z,23.10
2018-02-27T12:28:12.113Z,22.50
2018-02-27T12:30:40.113Z,22.30
2018-02-27T12:33:08.164Z,21.70
2018-02-27T12:35:37.160Z,22.60
2018-02-27T12:38:06.169Z,22.70
2018-02-27T12:40:34.173Z,21.10
2018-02-27T12:43:04.899Z,20.30
2018-02-27T12:45:32.905Z,20.20
2018-02-27T12:48:01.453Z,20.60
2018-02-27T12:50:33.473Z,20.50
2018-02-27T12:53:03.405Z,20.50
2018-02-27T12:55:32.314Z,20.10
2018-02-27T12:58:00.321Z,17.60
2018-02-27T13:00:29.244Z,19.80
2018-02-27T13:02:57.257Z,20.30
2018-02-27T13:05:26.037Z,21.40
2018-02-27T13:07:55.733Z,23.40
2018-02-27T13:10:23.740Z,23.30
2018-02-27T13:12:51.753Z,23.30
2018-02-27T13:15:19.789Z,22.30
2018-02-27T13:17:51.494Z,22.80
2018-02-27T13:20:19.517Z,23.60
2018-02-27T13:22:47.541Z,22.70
2018-02-27T13:25:18.593Z,21.00
2018-02-27T13:27:47.365Z,21.00
2018-02-27T13:30:15.389Z,20.90
2018-02-27T13:32:43.400Z,20.50
2018-02-27T13:35:11.413Z,20.80
2018-02-27T13:37:40.452Z,21.20
2018-02-27T13:40:12.972Z,21.10
2018-02-27T13:42:41.008Z,20.20
2018-02-27T13:45:21.113Z,20.50
2018-02-27T13:47:50.076Z,20.50
2018-02-27T13:50:18.042Z,20.50
2018-02-27T13:52:46.820Z,20.80
2018-02-27T13:55:15.739Z,20.70
2018-02-27T13:57:44.681Z,20.60
2018-02-27T14:00:13.804Z,22.70
2018-02-27T14:02:46.345Z,23.70
2018-02-27T14:05:20.020Z,23.20
2018-02-27T14:07:49.785Z,23.40
2018-02-27T14:10:22.745Z,23.30
2018-02-27T14:12:50.769Z,23.10
2018-02-27T14:15:19.530Z,21.90
2018-02-27T14:17:55.356Z,22.20
2018-02-27T14:20:27.108Z,22.20
2018-02-27T14:22:59.769Z,22.50
2018-02-27T14:25:27.773Z,23.40
2018-02-27T14:27:58.608Z,23.50
2018-02-27T14:30:26.620Z,23.40
2018-02-27T14:32:54.636Z,22.10
2018-02-27T14:35:22.656Z,23.00
2018-02-27T14:37:51.592Z,25.00
2018-02-27T14:40:19.601Z,24.50
2018-02-27T14:42:48.816Z,23.00
2018-02-27T14:45:16.835Z,23.00
2018-02-27T14:47:46.564Z,23.30
2018-02-27T14:50:14.590Z,23.20
2018-02-27T14:52:45.660Z,22.50
2018-02-27T14:55:13.680Z,22.10
2018-02-27T14:57:42.624Z,21.80
2018-02-27T15:00:10.636Z,22.70
2018-02-27T15:02:42.344Z,23.00
2018-02-27T15:05:10.352Z,22.70
2018-02-27T15:07:39.128Z,22.30
2018-02-27T15:10:08.912Z,21.60
2018-02-27T15:12:36.909Z,21.60
2018-02-27T15:15:07.593Z,22.80
2018-02-27T15:17:35.604Z,22.30
2018-02-27T15:20:08.041Z,23.00
2018-02-27T15:22:36.076Z,23.00
2018-02-27T15:25:04.085Z,24.10
2018-02-27T15:27:39.528Z,24.60
2018-02-27T15:30:07.532Z,25.60
2018-02-27T15:32:38.236Z,28.00
2018-02-27T15:35:08.144Z,28.00
2018-02-27T15:37:36.160Z,28.10
2018-02-27T15:40:06.149Z,27.80
2018-02-27T15:42:44.916Z,27.90
2018-02-27T15:45:13.850Z,27.60
2018-02-27T15:47:41.860Z,27.50
2018-02-27T15:50:09.876Z,28.00
2018-02-27T15:52:37.889Z,29.10
2018-02-27T15:55:10.620Z,29.50
2018-02-27T15:57:40.332Z,30.20
2018-02-27T16:00:08.344Z,30.10
2018-02-27T16:02:44.444Z,31.90
2018-02-27T16:05:13.252Z,33.40
2018-02-27T16:07:56.025Z,33.40
2018-02-27T16:10:24.788Z,36.10
2018-02-27T16:13:01.008Z,37.30
2018-02-27T16:15:34.092Z,37.30
2018-02-27T16:18:05.152Z,38.10
2018-02-27T16:20:35.220Z,39.80
2018-02-27T16:23:04.172Z,40.70
2018-02-27T16:25:32.189Z,42.20
2018-02-27T16:28:03.268Z,42.70
2018-02-27T16:30:41.784Z,45.10
2018-02-27T16:33:11.700Z,45.90
2018-02-27T16:35:44.692Z,46.00
2018-02-27T16:38:19.204Z,46.70
2018-02-27T16:40:47.228Z,47.50
2018-02-27T16:43:15.244Z,48.40
2018-02-27T16:45:44.227Z,50.30
2018-02-27T16:48:12.260Z,50.40
2018-02-27T16:50:46.028Z,50.80
2018-02-27T16:53:21.008Z,50.80
2018-02-27T16:55:49.020Z,53.70
2018-02-27T16:58:17.937Z,54.90
2018-02-27T17:00:46.716Z,55.90
2018-02-27T17:03:15.496Z,53.50
2018-02-27T17:05:44.404Z,53.50
2018-02-27T17:08:25.989Z,54.50
2018-02-27T17:10:59.144Z,55.70
2018-02-27T17:13:27.155Z,55.20
2018-02-27T17:15:59.583Z,56.20
2018-02-27T17:18:27.608Z,56.20
2018-02-27T17:20:55.624Z,57.10
2018-02-27T17:23:24.520Z,57.10
2018-02-27T17:25:52.524Z,55.50
2018-02-27T17:28:21.308Z,57.70
2018-02-27T17:30:50.036Z,57.70
2018-02-27T17:33:33.208Z,57.20
2018-02-27T17:36:08.504Z,58.60
2018-02-27T17:38:36.519Z,58.40
2018-02-27T17:41:06.288Z,59.70
2018-02-27T17:43:39.174Z,59.20
2018-02-27T17:46:10.264Z,59.80
2018-02-27T17:48:43.948Z,60.40
2018-02-27T17:51:20.703Z,60.20
2018-02-27T17:53:50.511Z,59.20
2018-02-27T17:56:18.536Z,59.10
2018-02-27T17:58:50.653Z,60.70
2018-02-27T18:01:19.552Z,61.70
2018-02-27T18:03:57.240Z,62.90
2018-02-27T18:06:25.272Z,63.90
2018-02-27T18:08:54.032Z,64.20
2018-02-27T18:11:27.592Z,64.20
2018-02-27T18:13:56.036Z,64.20
2018-02-27T18:16:24.068Z,64.70
2018-02-27T18:19:03.555Z,66.50
2018-02-27T18:21:43.959Z,66.50
2018-02-27T18:24:11.984Z,66.30
2018-02-27T18:26:40.016Z,67.10
2018-02-27T18:29:11.771Z,69.10
2018-02-27T18:31:41.452Z,69.30
2018-02-27T18:34:13.791Z,69.30
2018-02-27T18:36:43.729Z,70.20
2018-02-27T18:39:11.748Z,70.80
2018-02-27T18:41:45.173Z,71.70
2018-02-27T18:44:13.973Z,70.10
2018-02-27T18:46:43.900Z,70.00
2018-02-27T18:49:12.816Z,70.40
2018-02-27T18:51:40.833Z,70.40
2018-02-27T18:54:08.860Z,70.90
2018-02-27T18:56:37.672Z,71.40
2018-02-27T18:59:09.670Z,71.40
2018-02-27T19:01:37.696Z,72.10
2018-02-27T19:04:07.625Z,72.60
2018-02-27T19:06:37.324Z,73.90
2018-02-27T19:09:07.275Z,73.90
2018-02-27T19:11:41.568Z,74.20
2018-02-27T19:14:12.643Z,74.30
2018-02-27T19:16:40.751Z,74.90
2018-02-27T19:19:11.560Z,75.90
2018-02-27T19:21:41.568Z,75.90
2018-02-27T19:24:09.599Z,76.00
2018-02-27T19:26:38.464Z,77.90
2018-02-27T19:29:06.648Z,77.80
2018-02-27T19:31:35.648Z,78.50
2018-02-27T19:34:10.320Z,79.50
2018-02-27T19:36:38.347Z,79.40
2018-02-27T19:39:07.384Z,80.20
2018-02-27T19:41:35.406Z,80.50
2018-02-27T19:44:05.375Z,80.80
2018-02-27T19:46:37.579Z,80.90
2018-02-27T19:49:18.859Z,80.90
2018-02-27T19:51:48.827Z,81.20
2018-02-27T19:54:17.843Z,80.90
2018-02-27T19:56:45.939Z,81.30
2018-02-27T19:59:16.684Z,82.10
2018-02-27T20:01:44.761Z,82.00
2018-02-27T20:04:14.845Z,81.90
2018-02-27T20:06:42.923Z,81.80
2018-02-27T20:09:16.287Z,82.40
2018-02-27T20:11:44.311Z,82.40
2018-02-27T20:14:21.312Z,82.80
2018-02-27T20:16:49.343Z,83.00
2018-02-27T20:19:18.139Z,82.80
2018-02-27T20:21:47.090Z,82.80
2018-02-27T20:24:18.983Z,82.90
2018-02-27T20:26:48.899Z,82.50
2018-02-27T20:29:21.854Z,82.60
2018-02-27T20:31:50.859Z,82.60
2018-02-27T20:34:19.839Z,82.90
2018-02-27T20:36:47.882Z,82.90
2018-02-27T20:39:21.619Z,83.10
2018-02-27T20:41:51.411Z,83.50
2018-02-27T20:44:23.171Z,83.40
2018-02-27T20:46:51.212Z,83.70
2018-02-27T20:49:19.251Z,84.10
2018-02-27T20:51:49.943Z,84.00
2018-02-27T20:54:17.993Z,84.00
2018-02-27T20:56:46.012Z,83.50
2018-02-27T20:59:16.926Z,82.70
2018-02-27T21:01:48.323Z,82.70
2018-02-27T21:04:16.664Z,82.50
2018-02-27T21:06:45.939Z,82.50
2018-02-27T21:09:14.107Z,82.00
2018-02-27T21:11:42.207Z,81.80
2018-02-27T21:14:11.254Z,82.20
2018-02-27T21:16:40.179Z,81.80
2018-02-27T21:19:09.187Z,82.00
2018-02-27T21:21:39.938Z,82.40
2018-02-27T21:24:08.939Z,82.40
2018-02-27T21:26:37.015Z,82.40
2018-02-27T21:29:19.846Z,83.10
2018-02-27T21:31:48.831Z,82.90
2018-02-27T21:34:17.667Z,82.60
2018-02-27T21:36:47.511Z,82.60
2018-02-27T21:39:17.503Z,82.60
2018-02-27T21:41:45.523Z,82.80
2018-02-27T21:44:14.575Z,82.70
2018-02-27T21:46:44.331Z,83.30
2018-02-27T21:49:13.411Z,83.30
2018-02-27T21:51:42.450Z,83.20
2018-02-27T21:54:10.506Z,83.30
2018-02-27T21:56:38.558Z,83.50
2018-02-27T21:59:06.659Z,83.90
2018-02-27T22:01:35.643Z,83.80
2018-02-27T22:04:03.703Z,84.20
2018-02-27T22:06:35.703Z,84.70
2018-02-27T22:09:08.555Z,85.30
2018-02-27T22:11:38.679Z,85.30
2018-02-27T22:14:08.698Z,84.50
2018-02-27T22:16:36.787Z,84.50
2018-02-27T22:19:05.694Z,85.30
2018-02-27T22:21:35.767Z,85.30
2018-02-27T22:24:04.202Z,85.80
2018-02-27T22:26:35.431Z,85.70
2018-02-27T22:29:05.314Z,85.60
2018-02-27T22:31:35.242Z,85.60
2018-02-27T22:34:03.547Z,85.60
2018-02-27T22:36:31.608Z,85.30
2018-02-27T22:39:01.157Z,85.20
2018-02-27T22:41:30.190Z,85.20
2018-02-27T22:43:58.983Z,85.70
2018-02-27T22:46:27.790Z,85.80
2018-02-27T22:48:57.761Z,85.80
2018-02-27T22:51:25.791Z,85.60
2018-02-27T22:53:56.450Z,85.70
2018-02-27T22:56:24.518Z,85.60
2018-02-27T22:58:52.572Z,85.50
2018-02-27T23:01:27.507Z,85.80
2018-02-27T23:03:55.946Z,86.30
2018-02-27T23:06:24.878Z,86.20
2018-02-27T23:08:52.918Z,86.80
2018-02-27T23:11:22.894Z,86.70
2018-02-27T23:13:52.912Z,86.60
2018-02-27T23:16:21.878Z,86.80
2018-02-27T23:18:49.930Z,87.30
2018-02-27T23:21:17.962Z,87.10
2018-02-27T23:23:51.198Z,87.70
2018-02-27T23:26:28.890Z,87.70
2018-02-27T23:29:04.158Z,87.90
2018-02-27T23:31:33.961Z,88.30
2018-02-27T23:34:07.562Z,88.60
2018-02-27T23:36:35.590Z,88.70
2018-02-27T23:39:07.610Z,89.00
2018-02-27T23:41:37.639Z,88.50
2018-02-27T23:44:05.678Z,88.00
2018-02-27T23:46:33.715Z,88.10
2018-02-27T23:49:01.734Z,87.70
2018-02-27T23:51:29.778Z,87.70
2018-02-27T23:53:57.802Z,87.40
2018-02-27T23:56:26.590Z,88.50
2018-02-27T23:58:55.403Z,88.40
